Terminal Aerodrome Forecast
Issued by NWS

Home | Current Version | Previous Version | Text Only | Print | Product List | Glossary On
Versions: 1 2 3 4 5 6 7 8 9 10 11 12 13 14
572
FTUS45 KABQ 191749
TAFROW
TAF
KROW 191749Z 1918/2018 VRB05KT P6SM BKN110
     FM192000 23017KT P6SM BKN200
     FM200200 27010KT P6SM SKC
     FM200800 30008KT P6SM SKC
     FM201700 36015KT P6SM SKC=

USA.gov is the U.S. government's official web portal to all federal, state and local government web resources and services.